Overview Statistics Trail Chart Weather Telemetry Raw packets
 

This is the latest recevied weather packets stored in our database for station/object N1JOV-7. If no packets are shown the sender has not sent any weather packets the latest 10 day(s).

<< 35 36 37 38 39 40 41 >>
Time Temp. Humidity Pressure Rain* Wind** Luminosity Snow
1788102661 23.33° C 66% 1017.8 hPa 0 mm - - -
1788102061 23.33° C 65% 1017.9 hPa 0 mm - - -
1788101461 23.33° C 65% 1018.2 hPa 0 mm - - -
1788100862 23.33° C 66% 1018.2 hPa 0 mm - - -
1788100262 22.78° C 68% 1018.2 hPa 0 mm - - -
1788099662 22.22° C 70% 1018.2 hPa 0 mm - - -
1788099062 20.56° C 74% 1018.2 hPa 0 mm - - -
1788098462 20.56° C 75% 1018.6 hPa 0 mm - - -
1788097862 20° C 75% 1018.5 hPa 0 mm - - -
1788097261 20° C 77% 1018.7 hPa 0 mm - - -
1788096661 19.44° C 77% 1018.8 hPa 0 mm - - -
1788096061 18.89° C 80% 1018.8 hPa 0 mm - - -
1788095461 18.33° C 80% 1018.6 hPa 0 mm - - -
1788094861 18.89° C 80% 1018.8 hPa 0 mm - - -
1788094261 18.33° C 79% 1018.8 hPa 0 mm - - -
1788093662 18.33° C 79% 1018.8 hPa 0 mm - - -
1788093062 18.33° C 80% 1018.7 hPa 0 mm - - -
1788092462 18.33° C 82% 1018.9 hPa 0 mm - - -
1788091862 17.78° C 84% 1019 hPa 0 mm - - -
1788091262 17.78° C 87% 1018.9 hPa 0 mm - - -
1788090662 16.67° C 90% 1018.9 hPa 0 mm - - -
1788090062 15.56° C 95% 1019 hPa 0 mm - - -
1788089461 15° C 99% 1019 hPa 0 mm - - -
1788088861 14.44° C 99% 1018.9 hPa 0 mm - - -
1788088261 14.44° C 99% 1019 hPa 0 mm - - -

* Rain latest hour (hover to see other rain measurements)
** Current wind speed in m/s (hover to see current wind gust speed)